Time;durP1;ratioP1;P1;durP2;ratioP2;P2;SDS_P1;SDS_P2;PMS_P1;PMS_P2;Temp;Humidity;BMP_temperature;BMP_pressure;BME280_temperature;BME280_humidity;BME280_pressure;Samples;Min_cycle;Max_cycle;Signal;HPM_P1;HPM_P2
2021/05/11 00:00:12;;;;;;;2.13;1.5;;;16.6;99.9;;;;;;;;;
2021/05/11 00:01:05;;;;;;;2.13;1.5;;;16.6;99.9;;;;;;;;;
2021/05/11 00:02:02;;;;;;;2.9;1.6;;;16.6;99.9;;;;;;;;;
2021/05/11 00:02:26;;;;;;;2.28;1.88;;;16.6;99.9;;;;;;;;;
2021/05/11 00:03:02;;;;;;;2.28;1.88;;;16.6;99.9;;;;;;;;;
2021/05/11 00:03:17;;;;;;;2.9;1.98;;;16.5;99.9;;;;;;;;;
2021/05/11 00:04:02;;;;;;;2.9;1.98;;;16.5;99.9;;;;;;;;;
2021/05/11 00:04:13;;;;;;;2.53;2.2;;;16.6;99.9;;;;;;;;;
2021/05/11 00:04:39;;;;;;;2.53;2.2;;;16.6;99.9;;;;;;;;;
2021/05/11 00:05:03;;;;;;;2.53;2.2;;;16.6;99.9;;;;;;;;;
2021/05/11 00:05:15;;;;;;;2.75;2.28;;;16.6;99.9;;;;;;;;;
2021/05/11 00:05:31;;;;;;;2.75;2.28;;;16.6;99.9;;;;;;;;;
2021/05/11 00:06:02;;;;;;;2.75;2.28;;;16.6;99.9;;;;;;;;;
2021/05/11 00:06:16;;;;;;;3.13;2.42;;;16.6;99.9;;;;;;;;;
2021/05/11 00:06:26;;;;;;;3.13;2.42;;;16.6;99.9;;;;;;;;;
2021/05/11 00:06:52;;;;;;;3.13;2.42;;;16.6;99.9;;;;;;;;;
2021/05/11 00:07:02;;;;;;;3.13;2.42;;;16.6;99.9;;;;;;;;;
2021/05/11 00:07:17;;;;;;;3.3;2.75;;;16.5;99.9;;;;;;;;;
2021/05/11 00:07:28;;;;;;;3.3;2.75;;;16.5;99.9;;;;;;;;;
2021/05/11 00:07:43;;;;;;;3.3;2.75;;;16.5;99.9;;;;;;;;;
2021/05/11 00:08:02;;;;;;;3.3;2.75;;;16.5;99.9;;;;;;;;;
2021/05/11 00:08:14;;;;;;;3.9;2.92;;;16.5;99.9;;;;;;;;;
2021/05/11 00:08:29;;;;;;;3.9;2.92;;;16.5;99.9;;;;;;;;;
2021/05/11 00:08:39;;;;;;;3.9;2.92;;;16.5;99.9;;;;;;;;;
2021/05/11 00:09:02;;;;;;;3.9;2.92;;;16.5;99.9;;;;;;;;;
2021/05/11 00:09:05;;;;;;;3.9;2.92;;;16.5;99.9;;;;;;;;;
2021/05/11 00:09:15;;;;;;;4.53;3.2;;;16.4;99.9;;;;;;;;;
2021/05/11 00:09:30;;;;;;;4.53;3.2;;;16.4;99.9;;;;;;;;;
2021/05/11 00:09:41;;;;;;;4.53;3.2;;;16.4;99.9;;;;;;;;;
2021/05/11 00:09:56;;;;;;;4.53;3.2;;;16.4;99.9;;;;;;;;;
2021/05/11 00:10:02;;;;;;;4.53;3.2;;;16.4;99.9;;;;;;;;;
2021/05/11 00:10:17;;;;;;;3.45;2.65;;;16.4;99.9;;;;;;;;;
2021/05/11 00:10:27;;;;;;;3.45;2.65;;;16.4;99.9;;;;;;;;;
2021/05/11 00:10:42;;;;;;;3.45;2.65;;;16.4;99.9;;;;;;;;;
2021/05/11 00:10:52;;;;;;;3.45;2.65;;;16.4;99.9;;;;;;;;;
2021/05/11 00:11:02;;;;;;;3.45;2.65;;;16.4;99.9;;;;;;;;;
2021/05/11 00:11:13;;;;;;;5.3;2.8;;;16.3;99.9;;;;;;;;;
2021/05/11 00:11:28;;;;;;;5.3;2.8;;;16.3;99.9;;;;;;;;;
2021/05/11 00:11:44;;;;;;;5.3;2.8;;;16.3;99.9;;;;;;;;;
2021/05/11 00:11:54;;;;;;;5.3;2.8;;;16.3;99.9;;;;;;;;;
2021/05/11 00:12:02;;;;;;;5.3;2.8;;;16.3;99.9;;;;;;;;;
2021/05/11 00:12:09;;;;;;;5.3;2.8;;;16.3;99.9;;;;;;;;;
2021/05/11 00:12:14;;;;;;;3.05;2.5;;;16.4;99.9;;;;;;;;;
2021/05/11 00:12:30;;;;;;;3.05;2.5;;;16.4;99.9;;;;;;;;;
2021/05/11 00:12:40;;;;;;;3.05;2.5;;;16.4;99.9;;;;;;;;;
2021/05/11 00:12:55;;;;;;;3.05;2.5;;;16.4;99.9;;;;;;;;;
2021/05/11 00:13:02;;;;;;;3.05;2.5;;;16.4;99.9;;;;;;;;;
2021/05/11 00:13:06;;;;;;;3.05;2.5;;;16.4;99.9;;;;;;;;;
2021/05/11 00:13:16;;;;;;;4.85;2.55;;;16.3;99.9;;;;;;;;;
2021/05/11 00:13:26;;;;;;;4.85;2.55;;;16.3;99.9;;;;;;;;;
2021/05/11 00:13:41;;;;;;;4.85;2.55;;;16.3;99.9;;;;;;;;;
2021/05/11 00:13:57;;;;;;;4.85;2.55;;;16.3;99.9;;;;;;;;;
2021/05/11 00:14:03;;;;;;;4.85;2.55;;;16.3;99.9;;;;;;;;;
2021/05/11 00:14:07;;;;;;;4.85;2.55;;;16.3;99.9;;;;;;;;;
2021/05/11 00:14:17;;;;;;;3.22;2.33;;;16.3;99.9;;;;;;;;;
2021/05/11 00:14:27;;;;;;;3.22;2.33;;;16.3;99.9;;;;;;;;;
2021/05/11 00:14:43;;;;;;;3.22;2.33;;;16.3;99.9;;;;;;;;;
2021/05/11 00:14:53;;;;;;;3.22;2.33;;;16.3;99.9;;;;;;;;;
2021/05/11 00:15:02;;;;;;;3.22;2.33;;;16.3;99.9;;;;;;;;;
2021/05/11 00:15:08;;;;;;;3.22;2.33;;;16.3;99.9;;;;;;;;;
2021/05/11 00:15:14;;;;;;;3.22;2.33;;;16.3;99.9;;;;;;;;;
2021/05/11 00:15:29;;;;;;;2.42;2.1;;;16.3;99.9;;;;;;;;;
2021/05/11 00:15:39;;;;;;;2.42;2.1;;;16.3;99.9;;;;;;;;;
2021/05/11 00:15:55;;;;;;;2.42;2.1;;;16.3;99.9;;;;;;;;;
2021/05/11 00:16:01;;;;;;;2.42;2.1;;;16.3;99.9;;;;;;;;;
2021/05/11 00:16:10;;;;;;;2.42;2.1;;;16.3;99.9;;;;;;;;;
2021/05/11 00:16:15;;;;;;;3.33;2.5;;;16.3;99.9;;;;;;;;;
2021/05/11 00:16:30;;;;;;;3.33;2.5;;;16.3;99.9;;;;;;;;;
2021/05/11 00:16:44;;;;;;;3.33;2.5;;;16.3;99.9;;;;;;;;;
2021/05/11 00:16:56;;;;;;;3.33;2.5;;;16.3;99.9;;;;;;;;;
2021/05/11 00:17:02;;;;;;;3.33;2.5;;;16.3;99.9;;;;;;;;;
2021/05/11 00:17:06;;;;;;;3.33;2.5;;;16.3;99.9;;;;;;;;;
2021/05/11 00:17:16;;;;;;;3.5;2.4;;;16.4;99.9;;;;;;;;;
2021/05/11 00:17:27;;;;;;;3.5;2.4;;;16.4;99.9;;;;;;;;;
2021/05/11 00:17:43;;;;;;;3.5;2.4;;;16.4;99.9;;;;;;;;;
2021/05/11 00:17:52;;;;;;;3.5;2.4;;;16.4;99.9;;;;;;;;;
2021/05/11 00:18:02;;;;;;;3.5;2.4;;;16.4;99.9;;;;;;;;;
2021/05/11 00:18:09;;;;;;;3.5;2.4;;;16.4;99.9;;;;;;;;;
2021/05/11 00:18:13;;;;;;;3.5;2.4;;;16.4;99.9;;;;;;;;;
2021/05/11 00:18:28;;;;;;;1.63;1.45;;;16.3;99.9;;;;;;;;;
2021/05/11 00:18:43;;;;;;;1.63;1.45;;;16.3;99.9;;;;;;;;;
2021/05/11 00:18:54;;;;;;;1.63;1.45;;;16.3;99.9;;;;;;;;;
2021/05/11 00:19:04;;;;;;;1.63;1.45;;;16.3;99.9;;;;;;;;;
2021/05/11 00:19:11;;;;;;;1.63;1.45;;;16.3;99.9;;;;;;;;;
2021/05/11 00:19:16;;;;;;;1.63;1.45;;;16.3;99.9;;;;;;;;;
2021/05/11 00:19:31;;;;;;;4.2;2.1;;;16.4;99.9;;;;;;;;;
2021/05/11 00:19:40;;;;;;;4.2;2.1;;;16.4;99.9;;;;;;;;;
2021/05/11 00:19:55;;;;;;;4.2;2.1;;;16.4;99.9;;;;;;;;;
2021/05/11 00:20:02;;;;;;;4.2;2.1;;;16.4;99.9;;;;;;;;;
2021/05/11 00:20:05;;;;;;;4.2;2.1;;;16.4;99.9;;;;;;;;;
2021/05/11 00:20:16;;;;;;;2.38;2;;;16.3;99.9;;;;;;;;;
2021/05/11 00:20:26;;;;;;;2.38;2;;;16.3;99.9;;;;;;;;;
2021/05/11 00:20:41;;;;;;;2.38;2;;;16.3;99.9;;;;;;;;;
2021/05/11 00:20:58;;;;;;;2.38;2;;;16.3;99.9;;;;;;;;;
2021/05/11 00:21:01;;;;;;;2.38;2;;;16.3;99.9;;;;;;;;;
2021/05/11 00:21:07;;;;;;;2.38;2;;;16.3;99.9;;;;;;;;;
2021/05/11 00:21:17;;;;;;;2.7;2.4;;;16.2;99.9;;;;;;;;;
2021/05/11 00:21:27;;;;;;;2.7;2.4;;;16.2;99.9;;;;;;;;;
2021/05/11 00:21:43;;;;;;;2.7;2.4;;;16.2;99.9;;;;;;;;;
2021/05/11 00:21:53;;;;;;;2.7;2.4;;;16.2;99.9;;;;;;;;;
2021/05/11 00:22:02;;;;;;;2.7;2.4;;;16.2;99.9;;;;;;;;;
2021/05/11 00:22:08;;;;;;;2.7;2.4;;;16.2;99.9;;;;;;;;;
2021/05/11 00:22:13;;;;;;;2.7;2.4;;;16.2;99.9;;;;;;;;;
2021/05/11 00:22:29;;;;;;;2.83;2.05;;;16.2;99.9;;;;;;;;;
2021/05/11 00:22:39;;;;;;;2.83;2.05;;;16.2;99.9;;;;;;;;;
2021/05/11 00:22:54;;;;;;;2.83;2.05;;;16.2;99.9;;;;;;;;;
2021/05/11 00:23:02;;;;;;;2.83;2.05;;;16.2;99.9;;;;;;;;;
2021/05/11 00:23:10;;;;;;;2.83;2.05;;;16.2;99.9;;;;;;;;;
2021/05/11 00:23:15;;;;;;;2.83;2.05;;;16.2;99.9;;;;;;;;;
2021/05/11 00:23:30;;;;;;;2.9;2.2;;;16.1;99.9;;;;;;;;;
2021/05/11 00:23:40;;;;;;;2.9;2.2;;;16.1;99.9;;;;;;;;;
2021/05/11 00:23:56;;;;;;;2.9;2.2;;;16.1;99.9;;;;;;;;;
2021/05/11 00:24:02;;;;;;;2.9;2.2;;;16.1;99.9;;;;;;;;;
2021/05/11 00:24:06;;;;;;;2.9;2.2;;;16.1;99.9;;;;;;;;;
2021/05/11 00:24:17;;;;;;;2.9;2.2;;;16.1;99.9;;;;;;;;;
2021/05/11 00:24:26;;;;;;;3.28;2.42;;;16.1;99.9;;;;;;;;;
2021/05/11 00:24:42;;;;;;;3.28;2.42;;;16.1;99.9;;;;;;;;;
2021/05/11 00:24:52;;;;;;;3.28;2.42;;;16.1;99.9;;;;;;;;;
2021/05/11 00:25:02;;;;;;;3.28;2.42;;;16.1;99.9;;;;;;;;;
2021/05/11 00:25:08;;;;;;;3.28;2.42;;;16.1;99.9;;;;;;;;;
2021/05/11 00:25:13;;;;;;;3.28;2.42;;;16.1;99.9;;;;;;;;;
2021/05/11 00:25:28;;;;;;;2.3;2.1;;;16.2;99.9;;;;;;;;;
2021/05/11 00:25:43;;;;;;;2.3;2.1;;;16.2;99.9;;;;;;;;;
2021/05/11 00:25:54;;;;;;;2.3;2.1;;;16.2;99.9;;;;;;;;;
2021/05/11 00:26:01;;;;;;;2.3;2.1;;;16.2;99.9;;;;;;;;;
2021/05/11 00:26:09;;;;;;;2.3;2.1;;;16.2;99.9;;;;;;;;;
2021/05/11 00:26:14;;;;;;;2.3;2.1;;;16.2;99.9;;;;;;;;;
2021/05/11 00:26:29;;;;;;;3.55;2.38;;;16.2;99.9;;;;;;;;;
2021/05/11 00:26:40;;;;;;;3.55;2.38;;;16.2;99.9;;;;;;;;;
2021/05/11 00:26:55;;;;;;;3.55;2.38;;;16.2;99.9;;;;;;;;;
2021/05/11 00:27:02;;;;;;;3.55;2.38;;;16.2;99.9;;;;;;;;;
2021/05/11 00:27:05;;;;;;;3.55;2.38;;;16.2;99.9;;;;;;;;;
2021/05/11 00:27:15;;;;;;;3.55;2.38;;;16.2;99.9;;;;;;;;;
2021/05/11 00:27:26;;;;;;;2.38;2;;;16.3;99.9;;;;;;;;;
2021/05/11 00:27:41;;;;;;;2.38;2;;;16.3;99.9;;;;;;;;;
2021/05/11 00:27:56;;;;;;;2.38;2;;;16.3;99.9;;;;;;;;;
2021/05/11 00:28:02;;;;;;;2.38;2;;;16.3;99.9;;;;;;;;;
2021/05/11 00:28:07;;;;;;;2.38;2;;;16.3;99.9;;;;;;;;;
2021/05/11 00:28:12;;;;;;;2.38;2;;;16.3;99.9;;;;;;;;;
2021/05/11 00:28:27;;;;;;;2.78;2.28;;;16.3;99.9;;;;;;;;;
2021/05/11 00:28:42;;;;;;;2.78;2.28;;;16.3;99.9;;;;;;;;;
2021/05/11 00:28:53;;;;;;;2.78;2.28;;;16.3;99.9;;;;;;;;;
2021/05/11 00:29:02;;;;;;;2.78;2.28;;;16.3;99.9;;;;;;;;;
2021/05/11 00:29:08;;;;;;;2.78;2.28;;;16.3;99.9;;;;;;;;;
2021/05/11 00:29:13;;;;;;;2.78;2.28;;;16.3;99.9;;;;;;;;;
2021/05/11 00:29:29;;;;;;;2.75;2.1;;;16.3;99.9;;;;;;;;;
2021/05/11 00:29:39;;;;;;;2.75;2.1;;;16.3;99.9;;;;;;;;;
2021/05/11 00:29:54;;;;;;;2.75;2.1;;;16.3;99.9;;;;;;;;;
2021/05/11 00:30:02;;;;;;;2.75;2.1;;;16.3;99.9;;;;;;;;;
2021/05/11 00:30:10;;;;;;;2.75;2.1;;;16.3;99.9;;;;;;;;;
2021/05/11 00:30:15;;;;;;;2.75;2.1;;;16.3;99.9;;;;;;;;;
2021/05/11 00:30:26;;;;;;;2.95;2.65;;;16.2;99.9;;;;;;;;;
2021/05/11 00:30:40;;;;;;;2.95;2.65;;;16.2;99.9;;;;;;;;;
2021/05/11 00:30:56;;;;;;;2.95;2.65;;;16.2;99.9;;;;;;;;;
2021/05/11 00:31:01;;;;;;;2.95;2.65;;;16.2;99.9;;;;;;;;;
2021/05/11 00:31:06;;;;;;;2.95;2.65;;;16.2;99.9;;;;;;;;;
2021/05/11 00:31:16;;;;;;;2.95;2.65;;;16.2;99.9;;;;;;;;;
2021/05/11 00:31:26;;;;;;;2.83;2.33;;;16.2;99.9;;;;;;;;;
2021/05/11 00:31:42;;;;;;;2.83;2.33;;;16.2;99.9;;;;;;;;;
2021/05/11 00:31:52;;;;;;;2.83;2.33;;;16.2;99.9;;;;;;;;;
2021/05/11 00:32:02;;;;;;;2.83;2.33;;;16.2;99.9;;;;;;;;;
2021/05/11 00:32:07;;;;;;;2.83;2.33;;;16.2;99.9;;;;;;;;;
2021/05/11 00:32:12;;;;;;;2.83;2.33;;;16.2;99.9;;;;;;;;;
2021/05/11 00:32:28;;;;;;;2.6;2.4;;;16.2;99.9;;;;;;;;;
2021/05/11 00:32:38;;;;;;;2.6;2.4;;;16.2;99.9;;;;;;;;;
2021/05/11 00:32:53;;;;;;;2.6;2.4;;;16.2;99.9;;;;;;;;;
2021/05/11 00:33:01;;;;;;;2.6;2.4;;;16.2;99.9;;;;;;;;;
2021/05/11 00:33:09;;;;;;;2.6;2.4;;;16.2;99.9;;;;;;;;;
2021/05/11 00:33:14;;;;;;;2.6;2.4;;;16.2;99.9;;;;;;;;;
2021/05/11 00:33:29;;;;;;;2.58;2.38;;;16.1;99.9;;;;;;;;;
2021/05/11 00:33:39;;;;;;;2.58;2.38;;;16.1;99.9;;;;;;;;;
2021/05/11 00:33:55;;;;;;;2.58;2.38;;;16.1;99.9;;;;;;;;;
2021/05/11 00:34:02;;;;;;;2.58;2.38;;;16.1;99.9;;;;;;;;;
2021/05/11 00:34:05;;;;;;;2.58;2.38;;;16.1;99.9;;;;;;;;;
2021/05/11 00:34:15;;;;;;;2.58;2.38;;;16.1;99.9;;;;;;;;;
2021/05/11 00:34:26;;;;;;;3.35;2.47;;;16;99.9;;;;;;;;;
2021/05/11 00:34:41;;;;;;;3.35;2.47;;;16;99.9;;;;;;;;;
2021/05/11 00:34:51;;;;;;;3.35;2.47;;;16;99.9;;;;;;;;;
2021/05/11 00:35:02;;;;;;;3.35;2.47;;;16;99.9;;;;;;;;;
2021/05/11 00:35:06;;;;;;;3.35;2.47;;;16;99.9;;;;;;;;;
2021/05/11 00:35:12;;;;;;;3.35;2.47;;;16;99.9;;;;;;;;;
2021/05/11 00:35:27;;;;;;;2.28;2;;;16;99.9;;;;;;;;;
2021/05/11 00:35:42;;;;;;;2.28;2;;;16;99.9;;;;;;;;;
2021/05/11 00:35:53;;;;;;;2.28;2;;;16;99.9;;;;;;;;;
2021/05/11 00:36:01;;;;;;;2.28;2;;;16;99.9;;;;;;;;;
2021/05/11 00:36:08;;;;;;;2.28;2;;;16;99.9;;;;;;;;;
2021/05/11 00:36:13;;;;;;;2.28;2;;;16;99.9;;;;;;;;;
2021/05/11 00:36:28;;;;;;;2.55;2.22;;;16;99.9;;;;;;;;;
2021/05/11 00:36:39;;;;;;;2.55;2.22;;;16;99.9;;;;;;;;;
2021/05/11 00:36:54;;;;;;;2.55;2.22;;;16;99.9;;;;;;;;;
2021/05/11 00:37:02;;;;;;;2.55;2.22;;;16;99.9;;;;;;;;;
2021/05/11 00:37:04;;;;;;;2.55;2.22;;;16;99.9;;;;;;;;;
2021/05/11 00:37:14;;;;;;;2.55;2.22;;;16;99.9;;;;;;;;;
2021/05/11 00:37:25;;;;;;;2.95;2.53;;;16;99.9;;;;;;;;;
2021/05/11 00:37:40;;;;;;;2.95;2.53;;;16;99.9;;;;;;;;;
2021/05/11 00:37:55;;;;;;;2.95;2.53;;;16;99.9;;;;;;;;;
2021/05/11 00:38:02;;;;;;;2.95;2.53;;;16;99.9;;;;;;;;;
2021/05/11 00:38:06;;;;;;;2.95;2.53;;;16;99.9;;;;;;;;;
2021/05/11 00:38:16;;;;;;;2.95;2.53;;;16;99.9;;;;;;;;;
2021/05/11 00:38:26;;;;;;;2.65;2.45;;;16;99.9;;;;;;;;;
2021/05/11 00:38:42;;;;;;;2.65;2.45;;;16;99.9;;;;;;;;;
2021/05/11 00:38:52;;;;;;;2.65;2.45;;;16;99.9;;;;;;;;;
2021/05/11 00:39:02;;;;;;;2.65;2.45;;;16;99.9;;;;;;;;;
2021/05/11 00:39:07;;;;;;;2.65;2.45;;;16;99.9;;;;;;;;;
2021/05/11 00:39:12;;;;;;;2.65;2.45;;;16;99.9;;;;;;;;;
2021/05/11 00:39:28;;;;;;;3.65;2.3;;;15.9;99.9;;;;;;;;;
2021/05/11 00:39:38;;;;;;;3.65;2.3;;;15.9;99.9;;;;;;;;;
2021/05/11 00:39:53;;;;;;;3.65;2.3;;;15.9;99.9;;;;;;;;;
2021/05/11 00:40:02;;;;;;;3.65;2.3;;;15.9;99.9;;;;;;;;;
2021/05/11 00:40:09;;;;;;;3.65;2.3;;;15.9;99.9;;;;;;;;;
2021/05/11 00:40:14;;;;;;;3.65;2.3;;;15.9;99.9;;;;;;;;;
2021/05/11 00:40:29;;;;;;;3.8;2.55;;;15.9;99.9;;;;;;;;;
2021/05/11 00:40:39;;;;;;;3.8;2.55;;;15.9;99.9;;;;;;;;;
2021/05/11 00:40:55;;;;;;;3.8;2.55;;;15.9;99.9;;;;;;;;;
2021/05/11 00:41:01;;;;;;;3.8;2.55;;;15.9;99.9;;;;;;;;;
2021/05/11 00:41:05;;;;;;;3.8;2.55;;;15.9;99.9;;;;;;;;;
2021/05/11 00:41:15;;;;;;;3.8;2.55;;;15.9;99.9;;;;;;;;;
2021/05/11 00:41:25;;;;;;;2.58;2.38;;;15.9;99.9;;;;;;;;;
2021/05/11 00:41:41;;;;;;;2.58;2.38;;;15.9;99.9;;;;;;;;;
2021/05/11 00:41:51;;;;;;;2.58;2.38;;;15.9;99.9;;;;;;;;;
2021/05/11 00:42:02;;;;;;;2.58;2.38;;;15.9;99.9;;;;;;;;;
2021/05/11 00:42:06;;;;;;;2.58;2.38;;;15.9;99.9;;;;;;;;;
2021/05/11 00:42:17;;;;;;;2.58;2.38;;;15.9;99.9;;;;;;;;;
2021/05/11 00:42:27;;;;;;;3.2;2.5;;;15.8;99.9;;;;;;;;;
2021/05/11 00:42:42;;;;;;;3.2;2.5;;;15.8;99.9;;;;;;;;;
2021/05/11 00:42:52;;;;;;;3.2;2.5;;;15.8;99.9;;;;;;;;;
2021/05/11 00:43:01;;;;;;;3.2;2.5;;;15.8;99.9;;;;;;;;;
2021/05/11 00:43:08;;;;;;;3.2;2.5;;;15.8;99.9;;;;;;;;;
2021/05/11 00:43:13;;;;;;;3.2;2.5;;;15.8;99.9;;;;;;;;;
2021/05/11 00:43:28;;;;;;;3.53;2.55;;;15.8;99.9;;;;;;;;;
2021/05/11 00:43:38;;;;;;;3.53;2.55;;;15.8;99.9;;;;;;;;;
2021/05/11 00:43:54;;;;;;;3.53;2.55;;;15.8;99.9;;;;;;;;;
2021/05/11 00:44:02;;;;;;;3.53;2.55;;;15.8;99.9;;;;;;;;;
2021/05/11 00:44:04;;;;;;;3.53;2.55;;;15.8;99.9;;;;;;;;;
2021/05/11 00:44:14;;;;;;;3.53;2.55;;;15.8;99.9;;;;;;;;;
2021/05/11 00:44:30;;;;;;;3.38;2.8;;;15.7;99.9;;;;;;;;;
2021/05/11 00:44:40;;;;;;;3.38;2.8;;;15.7;99.9;;;;;;;;;
2021/05/11 00:44:55;;;;;;;3.38;2.8;;;15.7;99.9;;;;;;;;;
2021/05/11 00:45:02;;;;;;;3.38;2.8;;;15.7;99.9;;;;;;;;;
2021/05/11 00:45:06;;;;;;;3.38;2.8;;;15.7;99.9;;;;;;;;;
2021/05/11 00:45:16;;;;;;;3.38;2.8;;;15.7;99.9;;;;;;;;;
2021/05/11 00:45:26;;;;;;;3.58;2.53;;;15.6;99.9;;;;;;;;;
2021/05/11 00:45:41;;;;;;;3.58;2.53;;;15.6;99.9;;;;;;;;;
2021/05/11 00:45:52;;;;;;;3.58;2.53;;;15.6;99.9;;;;;;;;;
2021/05/11 00:46:01;;;;;;;3.58;2.53;;;15.6;99.9;;;;;;;;;
2021/05/11 00:46:07;;;;;;;3.58;2.53;;;15.6;99.9;;;;;;;;;
2021/05/11 00:46:13;;;;;;;3.58;2.53;;;15.6;99.9;;;;;;;;;
2021/05/11 00:46:34;;;;;;;3.5;2.6;;;15.5;99.9;;;;;;;;;
2021/05/11 00:46:43;;;;;;;3.5;2.6;;;15.5;99.9;;;;;;;;;
2021/05/11 00:46:56;;;;;;;3.5;2.6;;;15.5;99.9;;;;;;;;;
2021/05/11 00:47:04;;;;;;;3.5;2.6;;;15.5;99.9;;;;;;;;;
2021/05/11 00:47:08;;;;;;;3.5;2.6;;;15.5;99.9;;;;;;;;;
2021/05/11 00:47:14;;;;;;;3.5;2.6;;;15.5;99.9;;;;;;;;;
2021/05/11 00:47:29;;;;;;;3.25;2.83;;;15.6;99.9;;;;;;;;;
2021/05/11 00:47:40;;;;;;;3.25;2.83;;;15.6;99.9;;;;;;;;;
2021/05/11 00:47:55;;;;;;;3.25;2.83;;;15.6;99.9;;;;;;;;;
2021/05/11 00:48:01;;;;;;;3.25;2.83;;;15.6;99.9;;;;;;;;;
2021/05/11 00:48:05;;;;;;;3.25;2.83;;;15.6;99.9;;;;;;;;;
2021/05/11 00:48:15;;;;;;;3.25;2.83;;;15.6;99.9;;;;;;;;;
2021/05/11 00:48:25;;;;;;;2.92;2.6;;;15.6;99.9;;;;;;;;;
2021/05/11 00:48:46;;;;;;;2.92;2.6;;;15.6;99.9;;;;;;;;;
2021/05/11 00:48:56;;;;;;;2.92;2.6;;;15.6;99.9;;;;;;;;;
2021/05/11 00:49:02;;;;;;;2.92;2.6;;;15.6;99.9;;;;;;;;;
2021/05/11 00:49:06;;;;;;;2.92;2.6;;;15.6;99.9;;;;;;;;;
2021/05/11 00:49:16;;;;;;;2.92;2.6;;;15.6;99.9;;;;;;;;;
2021/05/11 00:49:28;;;;;;;2.97;2.47;;;15.6;99.9;;;;;;;;;
2021/05/11 00:49:42;;;;;;;2.97;2.47;;;15.6;99.9;;;;;;;;;
2021/05/11 00:49:52;;;;;;;2.97;2.47;;;15.6;99.9;;;;;;;;;
2021/05/11 00:50:02;;;;;;;2.97;2.47;;;15.6;99.9;;;;;;;;;
2021/05/11 00:50:08;;;;;;;2.97;2.47;;;15.6;99.9;;;;;;;;;
2021/05/11 00:50:13;;;;;;;2.97;2.47;;;15.6;99.9;;;;;;;;;
2021/05/11 00:50:28;;;;;;;2.97;2.2;;;15.6;99.9;;;;;;;;;
2021/05/11 00:50:38;;;;;;;2.97;2.2;;;15.6;99.9;;;;;;;;;
2021/05/11 00:50:59;;;;;;;2.97;2.2;;;15.6;99.9;;;;;;;;;
2021/05/11 00:51:01;;;;;;;2.97;2.2;;;15.6;99.9;;;;;;;;;
2021/05/11 00:51:09;;;;;;;2.97;2.2;;;15.6;99.9;;;;;;;;;
2021/05/11 00:51:14;;;;;;;2.97;2.2;;;15.6;99.9;;;;;;;;;
2021/05/11 00:51:30;;;;;;;3.05;2.7;;;15.5;99.9;;;;;;;;;
2021/05/11 00:51:40;;;;;;;3.05;2.7;;;15.5;99.9;;;;;;;;;
2021/05/11 00:51:55;;;;;;;3.05;2.7;;;15.5;99.9;;;;;;;;;
2021/05/11 00:52:02;;;;;;;3.05;2.7;;;15.5;99.9;;;;;;;;;
2021/05/11 00:52:05;;;;;;;3.05;2.7;;;15.5;99.9;;;;;;;;;
2021/05/11 00:52:16;;;;;;;3.05;2.7;;;15.5;99.9;;;;;;;;;
2021/05/11 00:52:26;;;;;;;3.15;2.85;;;15.5;99.9;;;;;;;;;
2021/05/11 00:52:41;;;;;;;3.15;2.85;;;15.5;99.9;;;;;;;;;
2021/05/11 00:52:51;;;;;;;3.15;2.85;;;15.5;99.9;;;;;;;;;
2021/05/11 00:53:01;;;;;;;3.15;2.85;;;15.5;99.9;;;;;;;;;
2021/05/11 00:53:12;;;;;;;3.15;2.85;;;15.5;99.9;;;;;;;;;
2021/05/11 00:53:12;;;;;;;3.15;2.85;;;15.5;99.9;;;;;;;;;
2021/05/11 00:53:27;;;;;;;3.1;2.8;;;15.5;99.9;;;;;;;;;
2021/05/11 00:53:44;;;;;;;3.1;2.8;;;15.5;99.9;;;;;;;;;
2021/05/11 00:53:53;;;;;;;3.1;2.8;;;15.5;99.9;;;;;;;;;
2021/05/11 00:54:02;;;;;;;3.1;2.8;;;15.5;99.9;;;;;;;;;
2021/05/11 00:54:08;;;;;;;3.1;2.8;;;15.5;99.9;;;;;;;;;
2021/05/11 00:54:13;;;;;;;3.1;2.8;;;15.5;99.9;;;;;;;;;
2021/05/11 00:54:29;;;;;;;3.05;2.85;;;15.5;99.9;;;;;;;;;
2021/05/11 00:54:39;;;;;;;3.05;2.85;;;15.5;99.9;;;;;;;;;
2021/05/11 00:54:54;;;;;;;3.05;2.85;;;15.5;99.9;;;;;;;;;
2021/05/11 00:55:02;;;;;;;3.05;2.85;;;15.5;99.9;;;;;;;;;
2021/05/11 00:55:05;;;;;;;3.05;2.85;;;15.5;99.9;;;;;;;;;
2021/05/11 00:55:15;;;;;;;3.05;2.85;;;15.5;99.9;;;;;;;;;
2021/05/11 00:55:26;;;;;;;3.05;2.85;;;15.5;99.9;;;;;;;;;
2021/05/11 00:55:40;;;;;;;3.35;2.45;;;15.5;99.9;;;;;;;;;
2021/05/11 00:55:56;;;;;;;3.35;2.45;;;15.5;99.9;;;;;;;;;
2021/05/11 00:56:02;;;;;;;3.35;2.45;;;15.5;99.9;;;;;;;;;
2021/05/11 00:56:06;;;;;;;3.35;2.45;;;15.5;99.9;;;;;;;;;
2021/05/11 00:56:19;;;;;;;3.35;2.45;;;15.5;99.9;;;;;;;;;
2021/05/11 00:56:27;;;;;;;4.85;2.75;;;15.5;99.9;;;;;;;;;
2021/05/11 00:56:42;;;;;;;4.85;2.75;;;15.5;99.9;;;;;;;;;
2021/05/11 00:56:52;;;;;;;4.85;2.75;;;15.5;99.9;;;;;;;;;
2021/05/11 00:57:02;;;;;;;4.85;2.75;;;15.5;99.9;;;;;;;;;
2021/05/11 00:57:09;;;;;;;4.85;2.75;;;15.5;99.9;;;;;;;;;
2021/05/11 00:57:18;;;;;;;4.85;2.75;;;15.5;99.9;;;;;;;;;
2021/05/11 00:57:30;;;;;;;3.05;2.5;;;15.5;99.9;;;;;;;;;
2021/05/11 00:57:38;;;;;;;3.05;2.5;;;15.5;99.9;;;;;;;;;
2021/05/11 00:57:54;;;;;;;3.05;2.5;;;15.5;99.9;;;;;;;;;
2021/05/11 00:58:01;;;;;;;3.05;2.5;;;15.5;99.9;;;;;;;;;
2021/05/11 00:58:09;;;;;;;3.05;2.5;;;15.5;99.9;;;;;;;;;
2021/05/11 00:58:14;;;;;;;3.05;2.5;;;15.5;99.9;;;;;;;;;
2021/05/11 00:58:29;;;;;;;3.78;2.85;;;15.5;99.9;;;;;;;;;
2021/05/11 00:58:40;;;;;;;3.78;2.85;;;15.5;99.9;;;;;;;;;
2021/05/11 00:58:55;;;;;;;3.78;2.85;;;15.5;99.9;;;;;;;;;
2021/05/11 00:59:02;;;;;;;3.78;2.85;;;15.5;99.9;;;;;;;;;
2021/05/11 00:59:10;;;;;;;3.78;2.85;;;15.5;99.9;;;;;;;;;
2021/05/11 00:59:18;;;;;;;3.78;2.85;;;15.5;99.9;;;;;;;;;
2021/05/11 00:59:31;;;;;;;2.83;2.63;;;15.5;99.9;;;;;;;;;
2021/05/11 00:59:41;;;;;;;2.83;2.63;;;15.5;99.9;;;;;;;;;
2021/05/11 00:59:51;;;;;;;2.83;2.63;;;15.5;99.9;;;;;;;;;
2021/05/11 01:00:02;;;;;;;2.83;2.63;;;15.5;99.9;;;;;;;;;
2021/05/11 01:00:07;;;;;;;2.83;2.63;;;15.5;99.9;;;;;;;;;
2021/05/11 01:00:12;;;;;;;2.83;2.63;;;15.5;99.9;;;;;;;;;
2021/05/11 01:00:27;;;;;;;2.83;2.63;;;15.5;99.9;;;;;;;;;
2021/05/11 01:00:42;;;;;;;3.08;2.8;;;15.4;99.9;;;;;;;;;
2021/05/11 01:00:53;;;;;;;3.08;2.8;;;15.4;99.9;;;;;;;;;
2021/05/11 01:01:02;;;;;;;3.08;2.8;;;15.4;99.9;;;;;;;;;
2021/05/11 01:01:08;;;;;;;3.08;2.8;;;15.4;99.9;;;;;;;;;
2021/05/11 01:01:13;;;;;;;3.08;2.8;;;15.4;99.9;;;;;;;;;
2021/05/11 01:01:29;;;;;;;3.2;2.7;;;15.3;99.9;;;;;;;;;
2021/05/11 01:01:44;;;;;;;3.2;2.7;;;15.3;99.9;;;;;;;;;
2021/05/11 01:01:54;;;;;;;3.2;2.7;;;15.3;99.9;;;;;;;;;
2021/05/11 01:02:02;;;;;;;3.2;2.7;;;15.3;99.9;;;;;;;;;
2021/05/11 01:02:04;;;;;;;3.2;2.7;;;15.3;99.9;;;;;;;;;
2021/05/11 01:02:20;;;;;;;3.2;2.7;;;15.3;99.9;;;;;;;;;
2021/05/11 01:02:25;;;;;;;3.2;2.7;;;15.3;99.9;;;;;;;;;
2021/05/11 01:02:40;;;;;;;3.47;2.67;;;15.3;99.9;;;;;;;;;
2021/05/11 01:02:56;;;;;;;3.47;2.67;;;15.3;99.9;;;;;;;;;
2021/05/11 01:03:01;;;;;;;3.47;2.67;;;15.3;99.9;;;;;;;;;
2021/05/11 01:03:06;;;;;;;3.47;2.67;;;15.3;99.9;;;;;;;;;
2021/05/11 01:03:16;;;;;;;3.47;2.67;;;15.3;99.9;;;;;;;;;
2021/05/11 01:03:26;;;;;;;3.47;2.67;;;15.3;99.9;;;;;;;;;
2021/05/11 01:03:42;;;;;;;3.63;2.8;;;15.3;99.9;;;;;;;;;
2021/05/11 01:03:57;;;;;;;3.63;2.8;;;15.3;99.9;;;;;;;;;
2021/05/11 01:04:02;;;;;;;3.63;2.8;;;15.3;99.9;;;;;;;;;
2021/05/11 01:04:07;;;;;;;3.63;2.8;;;15.3;99.9;;;;;;;;;
2021/05/11 01:04:18;;;;;;;3.63;2.8;;;15.3;99.9;;;;;;;;;
2021/05/11 01:04:33;;;;;;;3.38;2.97;;;15.4;99.9;;;;;;;;;
2021/05/11 01:04:38;;;;;;;3.38;2.97;;;15.4;99.9;;;;;;;;;
2021/05/11 01:04:54;;;;;;;3.38;2.97;;;15.4;99.9;;;;;;;;;
2021/05/11 01:05:03;;;;;;;3.38;2.97;;;15.4;99.9;;;;;;;;;
2021/05/11 01:05:09;;;;;;;3.38;2.97;;;15.4;99.9;;;;;;;;;
2021/05/11 01:05:14;;;;;;;3.38;2.97;;;15.4;99.9;;;;;;;;;
2021/05/11 01:05:29;;;;;;;3.22;2.6;;;15.4;99.9;;;;;;;;;
2021/05/11 01:05:39;;;;;;;3.22;2.6;;;15.4;99.9;;;;;;;;;
2021/05/11 01:05:55;;;;;;;3.22;2.6;;;15.4;99.9;;;;;;;;;
2021/05/11 01:06:02;;;;;;;3.22;2.6;;;15.4;99.9;;;;;;;;;
2021/05/11 01:06:10;;;;;;;3.22;2.6;;;15.4;99.9;;;;;;;;;
2021/05/11 01:06:15;;;;;;;3.22;2.6;;;15.4;99.9;;;;;;;;;
2021/05/11 01:06:31;;;;;;;2.8;2.5;;;15.4;99.9;;;;;;;;;
2021/05/11 01:06:46;;;;;;;2.8;2.5;;;15.4;99.9;;;;;;;;;
2021/05/11 01:06:51;;;;;;;2.8;2.5;;;15.4;99.9;;;;;;;;;
2021/05/11 01:07:02;;;;;;;2.8;2.5;;;15.4;99.9;;;;;;;;;
2021/05/11 01:07:07;;;;;;;2.8;2.5;;;15.4;99.9;;;;;;;;;
2021/05/11 01:07:17;;;;;;;2.8;2.5;;;15.4;99.9;;;;;;;;;
2021/05/11 01:07:27;;;;;;;2.8;2.5;;;15.4;99.9;;;;;;;;;
2021/05/11 01:07:42;;;;;;;3.28;2.97;;;15.5;99.9;;;;;;;;;
2021/05/11 01:07:53;;;;;;;3.28;2.97;;;15.5;99.9;;;;;;;;;
2021/05/11 01:08:01;;;;;;;3.28;2.97;;;15.5;99.9;;;;;;;;;
2021/05/11 01:08:09;;;;;;;3.28;2.97;;;15.5;99.9;;;;;;;;;
2021/05/11 01:08:14;;;;;;;3.28;2.97;;;15.5;99.9;;;;;;;;;
2021/05/11 01:08:28;;;;;;;3.28;2.97;;;15.5;99.9;;;;;;;;;
2021/05/11 01:08:44;;;;;;;3.6;3.05;;;15.5;99.9;;;;;;;;;
2021/05/11 01:08:59;;;;;;;3.6;3.05;;;15.5;99.9;;;;;;;;;
2021/05/11 01:09:02;;;;;;;3.6;3.05;;;15.5;99.9;;;;;;;;;
2021/05/11 01:09:04;;;;;;;3.6;3.05;;;15.5;99.9;;;;;;;;;
2021/05/11 01:09:14;;;;;;;3.6;3.05;;;15.5;99.9;;;;;;;;;
2021/05/11 01:09:30;;;;;;;3.6;3.05;;;15.5;99.9;;;;;;;;;
2021/05/11 01:09:40;;;;;;;3.2;2.8;;;15.5;99.9;;;;;;;;;
2021/05/11 01:09:57;;;;;;;3.2;2.8;;;15.5;99.9;;;;;;;;;
2021/05/11 01:10:02;;;;;;;3.2;2.8;;;15.5;99.9;;;;;;;;;
2021/05/11 01:10:06;;;;;;;3.2;2.8;;;15.5;99.9;;;;;;;;;
2021/05/11 01:10:16;;;;;;;3.2;2.8;;;15.5;99.9;;;;;;;;;
2021/05/11 01:10:26;;;;;;;3.2;2.8;;;15.5;99.9;;;;;;;;;
2021/05/11 01:10:42;;;;;;;3.2;2.88;;;15.5;99.9;;;;;;;;;
2021/05/11 01:10:57;;;;;;;3.2;2.88;;;15.5;99.9;;;;;;;;;
2021/05/11 01:11:02;;;;;;;3.2;2.88;;;15.5;99.9;;;;;;;;;
2021/05/11 01:11:12;;;;;;;3.2;2.88;;;15.5;99.9;;;;;;;;;
2021/05/11 01:11:12;;;;;;;3.2;2.88;;;15.5;99.9;;;;;;;;;
2021/05/11 01:11:28;;;;;;;3.2;2.88;;;15.5;99.9;;;;;;;;;
2021/05/11 01:11:45;;;;;;;3.17;2.78;;;15.5;99.9;;;;;;;;;
2021/05/11 01:11:53;;;;;;;3.17;2.78;;;15.5;99.9;;;;;;;;;
2021/05/11 01:12:02;;;;;;;3.17;2.78;;;15.5;99.9;;;;;;;;;
2021/05/11 01:12:09;;;;;;;3.17;2.78;;;15.5;99.9;;;;;;;;;
2021/05/11 01:12:14;;;;;;;3.17;2.78;;;15.5;99.9;;;;;;;;;
2021/05/11 01:12:29;;;;;;;3.17;2.78;;;15.5;99.9;;;;;;;;;
2021/05/11 01:12:39;;;;;;;3.85;2.8;;;15.5;99.9;;;;;;;;;
2021/05/11 01:12:55;;;;;;;3.85;2.8;;;15.5;99.9;;;;;;;;;
2021/05/11 01:13:01;;;;;;;3.85;2.8;;;15.5;99.9;;;;;;;;;
2021/05/11 01:13:10;;;;;;;3.85;2.8;;;15.5;99.9;;;;;;;;;
2021/05/11 01:13:15;;;;;;;3.85;2.8;;;15.5;99.9;;;;;;;;;
2021/05/11 01:13:25;;;;;;;3.85;2.8;;;15.5;99.9;;;;;;;;;
2021/05/11 01:13:41;;;;;;;3.22;2.88;;;15.5;99.9;;;;;;;;;
2021/05/11 01:13:56;;;;;;;3.22;2.88;;;15.5;99.9;;;;;;;;;
2021/05/11 01:14:02;;;;;;;3.22;2.88;;;15.5;99.9;;;;;;;;;
2021/05/11 01:14:06;;;;;;;3.22;2.88;;;15.5;99.9;;;;;;;;;
2021/05/11 01:14:17;;;;;;;3.22;2.88;;;15.5;99.9;;;;;;;;;
2021/05/11 01:14:27;;;;;;;3.22;2.88;;;15.5;99.9;;;;;;;;;
2021/05/11 01:14:42;;;;;;;3.38;2.22;;;15.5;99.9;;;;;;;;;
2021/05/11 01:14:53;;;;;;;3.38;2.22;;;15.5;99.9;;;;;;;;;
2021/05/11 01:15:01;;;;;;;3.38;2.22;;;15.5;99.9;;;;;;;;;
2021/05/11 01:15:08;;;;;;;3.38;2.22;;;15.5;99.9;;;;;;;;;
2021/05/11 01:15:13;;;;;;;3.38;2.22;;;15.5;99.9;;;;;;;;;
2021/05/11 01:15:28;;;;;;;3.38;2.22;;;15.5;99.9;;;;;;;;;
2021/05/11 01:15:41;;;;;;;3.05;2.75;;;15.5;99.9;;;;;;;;;
2021/05/11 01:15:54;;;;;;;3.05;2.75;;;15.5;99.9;;;;;;;;;